Time;durP1;ratioP1;P1;durP2;ratioP2;P2;SDS_P1;SDS_P2;PMS_P1;PMS_P2;Temp;Humidity;BMP_temperature;BMP_pressure;BME280_temperature;BME280_humidity;BME280_pressure;Samples;Min_cycle;Max_cycle;Signal;HPM_P1;HPM_P2
2022/01/25 00:15:04;;;;;;;31.52;21.35;;;1.80;99.90;;;;;;5039588;28;20192;-89
2022/01/25 00:24:44;;;;;;;31.05;21.92;;;1.50;99.90;;;;;;5034344;28;20567;-87
2022/01/25 00:27:15;;;;;;;34.63;23.00;;;1.50;99.90;;;;;;5035939;28;20200;-88
2022/01/25 00:29:58;;;;;;;32.08;22.15;;;1.60;99.90;;;;;;5019002;28;20473;-87
2022/01/25 00:32:25;;;;;;;31.95;22.98;;;1.50;99.90;;;;;;5017217;28;20215;-87
2022/01/25 00:34:52;;;;;;;31.02;23.42;;;1.50;99.90;;;;;;5000749;28;20204;-87
2022/01/25 00:37:20;;;;;;;33.40;23.70;;;1.50;99.90;;;;;;5003022;28;20212;-86
2022/01/25 00:39:48;;;;;;;32.20;24.30;;;1.40;99.90;;;;;;5003276;28;20486;-87
2022/01/25 00:42:15;;;;;;;34.22;24.35;;;1.40;99.90;;;;;;5009737;28;20443;-87
2022/01/25 00:44:46;;;;;;;34.83;24.20;;;1.40;99.90;;;;;;5038398;28;20761;-87
2022/01/25 00:47:15;;;;;;;35.85;23.30;;;1.40;99.90;;;;;;5054348;28;20487;-87
2022/01/25 00:49:44;;;;;;;34.92;24.40;;;1.50;99.90;;;;;;5026539;28;20224;-87
2022/01/25 00:53:53;;;;;;;35.25;23.73;;;1.50;99.90;;;;;;5025367;28;20208;-87
2022/01/25 00:55:14;;;;;;;37.67;23.73;;;1.50;99.90;;;;;;5023382;28;20190;-86
2022/01/25 00:57:42;;;;;;;34.45;24.05;;;1.50;99.90;;;;;;5037002;28;20199;-87
2022/01/25 01:00:11;;;;;;;34.60;23.80;;;1.50;99.90;;;;;;5029067;28;20210;-86
2022/01/25 01:02:38;;;;;;;38.88;27.38;;;1.50;99.90;;;;;;5022383;28;20698;-87
2022/01/25 01:05:06;;;;;;;30.17;25.15;;;1.60;99.90;;;;;;5016121;28;20705;-88
2022/01/25 01:07:33;;;;;;;39.47;26.42;;;1.50;99.90;;;;;;5016620;28;20202;-87
2022/01/25 01:10:00;;;;;;;34.55;24.60;;;1.40;99.90;;;;;;5035363;28;20226;-87
2022/01/25 01:12:57;;;;;;;32.10;24.15;;;1.40;99.90;;;;;;5030783;28;20203;-87
2022/01/25 01:15:29;;;;;;;39.90;25.85;;;1.40;99.90;;;;;;5015005;28;20205;-87
2022/01/25 01:29:13;;;;;;;35.40;23.95;;;1.50;99.90;;;;;;5014534;28;20214;-87
2022/01/25 01:31:59;;;;;;;30.95;24.52;;;1.40;99.90;;;;;;5024218;28;20195;-87
2022/01/25 01:35:08;;;;;;;33.75;24.58;;;1.40;99.90;;;;;;5038959;28;20215;-89
2022/01/25 01:43:05;;;;;;;33.88;25.45;;;1.30;99.90;;;;;;5025283;28;20209;-87
2022/01/25 01:45:42;;;;;;;32.50;23.02;;;1.30;99.90;;;;;;5018197;28;20202;-87
2022/01/25 01:48:11;;;;;;;41.42;25.85;;;1.30;99.90;;;;;;4999701;28;20201;-87
2022/01/25 01:50:39;;;;;;;34.58;24.38;;;1.30;99.90;;;;;;5019404;28;20207;-88
2022/01/25 01:53:08;;;;;;;28.67;22.42;;;1.30;99.90;;;;;;5047416;28;20241;-87
2022/01/25 01:55:36;;;;;;;33.08;23.15;;;1.30;99.90;;;;;;5025285;28;20208;-87
2022/01/25 01:58:04;;;;;;;36.15;24.67;;;1.30;99.90;;;;;;5027002;28;20298;-87
2022/01/25 02:00:36;;;;;;;35.58;24.15;;;1.30;99.90;;;;;;5016423;28;20224;-88
2022/01/25 02:03:04;;;;;;;32.75;24.40;;;1.30;99.90;;;;;;5015155;28;20528;-88
2022/01/25 02:05:32;;;;;;;39.33;24.75;;;1.30;99.90;;;;;;5015418;28;20290;-86
2022/01/25 02:08:00;;;;;;;32.00;22.15;;;1.30;99.90;;;;;;5011908;28;20201;-86
2022/01/25 02:10:27;;;;;;;38.70;24.40;;;1.30;99.90;;;;;;5014958;28;20227;-87
2022/01/25 02:12:54;;;;;;;30.38;24.40;;;1.40;99.90;;;;;;5014725;28;20199;-86
2022/01/25 02:15:24;;;;;;;40.33;25.65;;;1.40;99.90;;;;;;5009359;28;20208;-86
2022/01/25 02:23:26;;;;;;;41.40;26.20;;;1.40;99.90;;;;;;5012240;28;20257;-87
2022/01/25 02:25:55;;;;;;;38.28;24.75;;;1.30;99.90;;;;;;5015175;28;20205;-86
2022/01/25 02:28:22;;;;;;;36.30;23.70;;;1.40;99.90;;;;;;5022727;28;20206;-89
2022/01/25 02:30:50;;;;;;;35.08;24.02;;;1.30;99.90;;;;;;5026801;28;20195;-87
2022/01/25 02:33:23;;;;;;;39.72;26.05;;;1.40;99.90;;;;;;5039597;28;20197;-86
2022/01/25 02:35:51;;;;;;;38.55;25.15;;;1.40;99.90;;;;;;5015559;28;20192;-86
2022/01/25 02:38:21;;;;;;;37.25;26.63;;;1.40;99.90;;;;;;5020513;28;20596;-87
2022/01/25 02:40:49;;;;;;;42.58;27.25;;;1.50;99.90;;;;;;5015040;28;20193;-87
2022/01/25 02:43:17;;;;;;;38.17;25.42;;;1.40;99.90;;;;;;5027638;28;20180;-90
2022/01/25 02:45:48;;;;;;;37.22;25.10;;;1.50;99.90;;;;;;5044376;28;20201;-89
2022/01/25 02:48:30;;;;;;;42.60;28.13;;;1.40;99.90;;;;;;5017071;28;20202;-86
2022/01/25 02:51:01;;;;;;;34.17;24.35;;;1.40;99.90;;;;;;5013854;28;20664;-87
2022/01/25 02:53:29;;;;;;;42.10;26.58;;;1.40;99.90;;;;;;5011129;28;20196;-87
2022/01/25 02:55:57;;;;;;;38.47;26.33;;;1.40;99.90;;;;;;5018938;28;20270;-87
2022/01/25 02:58:24;;;;;;;44.92;29.42;;;1.40;99.90;;;;;;5014944;28;20192;-86
2022/01/25 03:00:50;;;;;;;45.30;28.25;;;1.40;99.90;;;;;;5022432;28;20198;-86
2022/01/25 03:03:17;;;;;;;40.50;26.83;;;1.40;99.90;;;;;;5014583;28;20728;-86
2022/01/25 03:05:45;;;;;;;39.95;25.67;;;1.40;99.90;;;;;;5033813;28;20232;-87
2022/01/25 03:08:14;;;;;;;40.80;24.85;;;1.30;99.90;;;;;;5037497;28;20208;-86
2022/01/25 03:10:43;;;;;;;39.30;26.55;;;1.30;99.90;;;;;;5027906;28;20200;-86
2022/01/25 03:13:16;;;;;;;36.58;25.88;;;1.20;99.90;;;;;;5046922;23;20634;-84
2022/01/25 03:15:57;;;;;;;35.78;23.33;;;1.30;99.90;;;;;;5014439;28;20573;-84
2022/01/25 03:23:56;;;;;;;35.58;23.42;;;1.30;99.90;;;;;;5013134;28;20299;-85
2022/01/25 03:26:23;;;;;;;33.45;23.17;;;1.30;99.90;;;;;;5006008;28;20192;-85
2022/01/25 03:28:51;;;;;;;36.17;24.38;;;1.30;99.90;;;;;;5007646;28;20197;-84
2022/01/25 03:31:17;;;;;;;39.58;24.38;;;1.30;99.90;;;;;;5004282;28;20195;-84
2022/01/25 03:33:45;;;;;;;36.80;23.85;;;1.20;99.90;;;;;;5003249;28;20219;-85
2022/01/25 03:36:13;;;;;;;38.55;24.17;;;1.20;99.90;;;;;;5012485;28;20215;-84
2022/01/25 03:38:41;;;;;;;32.25;22.77;;;1.30;99.90;;;;;;5019811;28;20206;-85
2022/01/25 03:43:39;;;;;;;36.92;24.30;;;1.20;99.90;;;;;;5558787;22;20622;-85
2022/01/25 03:46:12;;;;;;;31.92;23.50;;;1.20;99.90;;;;;;5025490;28;20199;-85
2022/01/25 03:51:23;;;;;;;35.25;23.60;;;1.20;99.90;;;;;;5034151;28;20201;-84
2022/01/25 03:53:51;;;;;;;34.25;24.60;;;1.20;99.90;;;;;;5031150;28;20194;-85
2022/01/25 03:56:18;;;;;;;30.50;23.08;;;1.10;99.90;;;;;;5039851;28;20198;-85
2022/01/25 03:58:46;;;;;;;36.70;23.58;;;1.10;99.90;;;;;;5047771;28;20191;-85
2022/01/25 04:01:12;;;;;;;40.40;25.20;;;1.10;99.90;;;;;;5038573;28;20202;-85
2022/01/25 04:03:45;;;;;;;33.75;23.08;;;1.00;99.90;;;;;;5039543;28;20199;-85
2022/01/25 04:06:17;;;;;;;35.80;23.60;;;1.00;99.90;;;;;;5042684;28;20631;-84
2022/01/25 04:08:44;;;;;;;37.88;24.70;;;1.00;99.90;;;;;;5033036;28;20675;-83
2022/01/25 04:11:11;;;;;;;39.70;26.08;;;0.90;99.90;;;;;;5039694;28;20204;-84
2022/01/25 04:13:37;;;;;;;30.67;20.73;;;0.90;99.90;;;;;;5048490;28;20184;-82
2022/01/25 04:16:11;;;;;;;40.50;25.60;;;0.90;99.90;;;;;;5046724;28;20195;-84
2022/01/25 04:18:52;;;;;;;35.65;23.75;;;0.90;99.90;;;;;;5056062;28;20238;-82
2022/01/25 04:21:39;;;;;;;30.23;21.33;;;1.00;99.90;;;;;;5047661;28;20206;-83
2022/01/25 04:26:54;;;;;;;32.75;23.75;;;1.00;99.90;;;;;;5043019;28;20196;-82
2022/01/25 04:29:21;;;;;;;32.85;22.55;;;0.90;99.90;;;;;;5050159;28;20211;-83
2022/01/25 04:31:49;;;;;;;38.20;24.67;;;0.90;99.90;;;;;;5033416;28;20219;-83
2022/01/25 04:34:37;;;;;;;33.80;25.40;;;0.80;99.90;;;;;;5036801;28;20278;-83
2022/01/25 04:51:10;;;;;;;38.28;24.67;;;0.90;99.90;;;;;;5040699;28;20741;-83
2022/01/25 04:53:46;;;;;;;37.45;23.90;;;0.90;99.90;;;;;;5038789;28;20531;-83
2022/01/25 04:56:19;;;;;;;38.17;26.48;;;0.90;99.90;;;;;;5049715;28;20232;-83
2022/01/25 04:58:52;;;;;;;40.35;25.08;;;0.80;99.90;;;;;;5043212;28;20286;-84
2022/01/25 05:01:19;;;;;;;39.15;27.45;;;0.80;99.90;;;;;;5037812;28;20199;-84
2022/01/25 05:03:57;;;;;;;39.88;26.60;;;0.90;99.90;;;;;;5039028;28;20227;-84
2022/01/25 05:06:25;;;;;;;35.22;23.20;;;0.80;99.90;;;;;;5035707;28;20632;-85
2022/01/25 05:08:55;;;;;;;36.42;25.63;;;0.80;99.90;;;;;;5044338;28;20228;-83
2022/01/25 05:11:28;;;;;;;41.53;26.55;;;0.70;99.90;;;;;;5038289;28;20221;-84
2022/01/25 05:14:11;;;;;;;43.63;25.60;;;0.70;99.90;;;;;;5039516;28;20196;-84
2022/01/25 05:16:47;;;;;;;38.22;26.88;;;0.80;99.90;;;;;;5037088;28;20218;-83
2022/01/25 05:22:19;;;;;;;41.92;26.02;;;0.80;99.90;;;;;;5036537;28;20245;-81
2022/01/25 05:24:46;;;;;;;39.00;25.67;;;0.80;99.90;;;;;;5052514;28;20206;-80
2022/01/25 05:27:15;;;;;;;39.38;25.77;;;0.70;99.90;;;;;;5046233;28;20192;-82
2022/01/25 05:29:43;;;;;;;36.80;24.42;;;0.70;99.90;;;;;;5049090;28;20203;-83
2022/01/25 05:32:10;;;;;;;33.75;24.38;;;0.70;99.90;;;;;;5036185;28;20215;-82
2022/01/25 05:34:38;;;;;;;35.60;23.83;;;0.60;99.90;;;;;;5038807;28;20198;-83
2022/01/25 05:37:07;;;;;;;34.63;23.80;;;0.60;99.90;;;;;;5033552;28;20195;-83
2022/01/25 05:39:35;;;;;;;36.78;25.13;;;0.60;99.90;;;;;;5039644;28;20199;-83
2022/01/25 05:42:18;;;;;;;33.88;23.95;;;0.60;99.90;;;;;;5038661;28;20215;-84
2022/01/25 05:44:56;;;;;;;38.55;24.23;;;0.50;99.90;;;;;;5033985;28;20223;-83
2022/01/25 05:47:28;;;;;;;40.05;25.23;;;0.50;99.90;;;;;;5042276;28;20206;-83
2022/01/25 05:49:56;;;;;;;38.75;24.02;;;0.50;99.90;;;;;;5045055;28;20241;-82
2022/01/25 05:52:23;;;;;;;37.78;25.58;;;0.50;99.90;;;;;;5035771;28;20218;-84
2022/01/25 05:54:50;;;;;;;35.25;24.48;;;0.40;99.90;;;;;;5040619;28;20194;-83
2022/01/25 05:57:17;;;;;;;39.95;25.00;;;0.50;99.90;;;;;;5036874;28;20206;-84
2022/01/25 05:59:45;;;;;;;40.95;26.67;;;0.60;99.90;;;;;;5037673;28;20191;-84
2022/01/25 06:02:17;;;;;;;37.75;25.58;;;0.50;99.90;;;;;;5036950;28;20211;-82
2022/01/25 06:04:44;;;;;;;42.53;27.17;;;0.50;99.90;;;;;;5035721;28;20191;-83
2022/01/25 06:07:12;;;;;;;41.25;25.25;;;0.40;99.90;;;;;;5038417;28;20199;-82
2022/01/25 06:09:40;;;;;;;38.28;25.02;;;0.40;99.90;;;;;;5033135;28;20194;-83
2022/01/25 06:12:08;;;;;;;41.08;25.48;;;0.40;99.90;;;;;;5031799;28;20203;-82
2022/01/25 06:14:35;;;;;;;40.33;27.08;;;0.40;99.90;;;;;;5039297;28;20218;-83
2022/01/25 06:17:02;;;;;;;43.42;27.40;;;0.40;99.90;;;;;;5031972;28;20195;-83
2022/01/25 06:19:28;;;;;;;37.53;24.92;;;0.50;99.90;;;;;;5037136;28;20233;-83
2022/01/25 06:21:55;;;;;;;44.78;27.20;;;0.40;99.90;;;;;;5034759;28;20697;-81
2022/01/25 06:24:23;;;;;;;41.85;25.45;;;0.40;99.90;;;;;;5038492;28;20196;-82
2022/01/25 06:26:50;;;;;;;38.08;25.52;;;0.30;99.90;;;;;;5045175;28;20205;-82
2022/01/25 06:29:18;;;;;;;43.67;26.42;;;0.30;99.90;;;;;;5055232;28;20175;-81
2022/01/25 06:31:47;;;;;;;47.83;27.85;;;0.30;99.90;;;;;;5055705;28;20205;-83
2022/01/25 06:34:13;;;;;;;34.90;23.65;;;0.30;99.90;;;;;;5051867;28;20187;-82
2022/01/25 06:36:40;;;;;;;38.80;26.02;;;0.30;99.90;;;;;;5048339;28;20270;-83
2022/01/25 06:39:07;;;;;;;43.88;27.88;;;0.30;99.90;;;;;;5049493;28;20202;-82
2022/01/25 06:41:37;;;;;;;35.70;26.20;;;0.30;99.90;;;;;;5044370;28;20241;-83
2022/01/25 06:44:05;;;;;;;39.40;25.08;;;0.30;99.90;;;;;;5040899;28;20204;-84
2022/01/25 06:46:31;;;;;;;42.20;26.30;;;0.30;99.90;;;;;;5044525;28;20230;-83
2022/01/25 06:48:58;;;;;;;41.75;27.27;;;0.30;99.90;;;;;;5040696;28;20195;-83
2022/01/25 06:51:25;;;;;;;35.42;25.27;;;0.30;99.90;;;;;;5039616;28;20202;-82
2022/01/25 06:53:51;;;;;;;44.15;28.50;;;0.30;99.90;;;;;;5034406;28;20226;-82
2022/01/25 06:56:18;;;;;;;44.22;26.17;;;0.30;99.90;;;;;;5037398;28;20234;-82
2022/01/25 06:58:46;;;;;;;44.30;28.83;;;0.30;99.90;;;;;;5039231;28;20207;-83
2022/01/25 07:01:13;;;;;;;46.90;29.77;;;0.30;99.90;;;;;;5040926;28;20199;-81
2022/01/25 07:03:39;;;;;;;38.10;26.70;;;0.20;99.90;;;;;;5041473;28;20207;-83
2022/01/25 07:06:06;;;;;;;43.25;27.20;;;0.20;99.90;;;;;;5034673;28;20221;-83
2022/01/25 07:08:33;;;;;;;45.30;27.83;;;0.20;99.90;;;;;;5041748;28;20226;-83
2022/01/25 07:11:00;;;;;;;41.53;26.95;;;0.30;99.90;;;;;;5037678;28;20590;-83
2022/01/25 07:13:26;;;;;;;34.35;24.58;;;0.30;99.90;;;;;;5036931;28;20292;-84
2022/01/25 07:15:54;;;;;;;36.78;26.00;;;0.40;99.90;;;;;;5041031;28;20219;-84
2022/01/25 07:18:21;;;;;;;39.67;25.27;;;0.30;99.90;;;;;;5034400;28;20199;-84
2022/01/25 07:20:48;;;;;;;36.75;25.60;;;0.30;99.90;;;;;;5039273;28;20195;-84
2022/01/25 07:23:15;;;;;;;43.17;28.88;;;0.20;99.90;;;;;;5049159;28;20699;-83
2022/01/25 07:25:42;;;;;;;44.03;24.70;;;0.20;99.90;;;;;;5051062;28;20225;-82
2022/01/25 07:28:08;;;;;;;38.08;23.88;;;0.30;99.90;;;;;;5042780;28;20261;-82
2022/01/25 07:30:35;;;;;;;40.35;26.52;;;0.30;99.90;;;;;;5040195;28;20205;-84
2022/01/25 07:33:05;;;;;;;39.22;24.85;;;0.30;99.90;;;;;;5037661;28;20229;-83
2022/01/25 07:35:33;;;;;;;36.90;23.52;;;0.30;99.90;;;;;;5038955;28;20218;-84
2022/01/25 07:37:59;;;;;;;44.10;26.42;;;0.40;99.90;;;;;;5038825;28;20202;-84
2022/01/25 07:40:26;;;;;;;34.95;25.27;;;0.40;99.90;;;;;;5042570;28;20218;-83
2022/01/25 07:42:53;;;;;;;37.03;24.23;;;0.50;99.90;;;;;;5037596;28;20231;-84
2022/01/25 07:45:21;;;;;;;38.90;24.23;;;0.50;99.90;;;;;;5043788;28;20199;-83
2022/01/25 07:47:48;;;;;;;42.15;25.63;;;0.60;99.90;;;;;;5035397;28;20231;-84
2022/01/25 07:50:16;;;;;;;37.78;23.25;;;0.70;99.90;;;;;;5036343;28;20202;-83
2022/01/25 07:52:43;;;;;;;40.78;25.73;;;0.70;99.90;;;;;;5037417;28;20247;-84
2022/01/25 07:55:11;;;;;;;38.20;23.83;;;0.80;99.90;;;;;;5048309;28;20694;-83
2022/01/25 07:57:39;;;;;;;42.22;27.50;;;0.80;99.90;;;;;;5049667;28;20199;-84
2022/01/25 08:00:07;;;;;;;37.15;24.42;;;0.80;99.90;;;;;;5048967;28;20195;-83
2022/01/25 08:02:34;;;;;;;41.30;25.77;;;0.80;99.90;;;;;;5050627;28;20215;-84
2022/01/25 08:05:00;;;;;;;37.00;25.60;;;0.90;99.90;;;;;;5042565;28;20195;-84
2022/01/25 08:07:28;;;;;;;37.38;24.38;;;0.90;99.90;;;;;;5034600;28;20202;-83
2022/01/25 08:09:55;;;;;;;31.70;22.23;;;1.00;99.90;;;;;;5038336;28;20199;-82
2022/01/25 08:12:22;;;;;;;35.03;22.83;;;1.00;99.90;;;;;;5034929;28;20296;-83
2022/01/25 08:14:49;;;;;;;40.53;25.88;;;1.10;99.90;;;;;;5053994;28;20200;-83
2022/01/25 08:17:17;;;;;;;35.42;24.08;;;1.10;99.90;;;;;;5041661;28;20635;-86
2022/01/25 08:19:44;;;;;;;31.15;22.15;;;1.10;99.90;;;;;;5042773;28;20249;-85
2022/01/25 08:22:11;;;;;;;36.35;22.60;;;1.10;99.90;;;;;;5034705;28;20218;-84
2022/01/25 08:24:39;;;;;;;39.53;26.17;;;1.10;99.90;;;;;;5031073;28;20738;-84
2022/01/25 08:27:06;;;;;;;34.25;23.45;;;1.10;99.90;;;;;;5030142;28;20201;-83
2022/01/25 08:29:33;;;;;;;31.83;23.17;;;1.20;99.90;;;;;;5025741;28;20205;-85
2022/01/25 08:32:00;;;;;;;33.45;23.88;;;1.20;99.90;;;;;;5029791;28;20272;-84
2022/01/25 08:34:26;;;;;;;28.52;23.15;;;1.30;99.90;;;;;;5029149;28;20200;-84
2022/01/25 08:36:53;;;;;;;41.30;25.60;;;1.40;99.90;;;;;;5042133;28;20218;-84
2022/01/25 08:39:28;;;;;;;37.13;25.27;;;1.50;99.90;;;;;;5051657;28;20230;-84
2022/01/25 08:41:56;;;;;;;34.63;24.02;;;1.50;99.90;;;;;;5055494;28;20198;-85
2022/01/25 08:44:23;;;;;;;32.00;22.33;;;1.60;99.90;;;;;;5038341;28;20210;-84
2022/01/25 08:46:50;;;;;;;34.95;24.35;;;1.70;99.90;;;;;;5047829;28;20249;-83
2022/01/25 08:49:17;;;;;;;33.30;23.80;;;1.80;99.90;;;;;;5051962;28;20230;-84
2022/01/25 08:51:44;;;;;;;35.30;22.50;;;1.80;99.90;;;;;;5051158;28;20228;-84
2022/01/25 08:54:10;;;;;;;33.70;22.90;;;1.90;99.90;;;;;;5040078;28;20200;-82
2022/01/25 08:56:40;;;;;;;31.10;23.35;;;2.10;99.90;;;;;;5038444;28;20219;-83
2022/01/25 08:59:08;;;;;;;39.03;23.73;;;2.20;99.90;;;;;;5047289;28;20195;-83
2022/01/25 09:01:35;;;;;;;30.25;22.75;;;2.50;99.90;;;;;;5046771;28;20219;-84
2022/01/25 09:04:02;;;;;;;32.95;22.23;;;2.60;99.90;;;;;;5040891;28;20243;-84
2022/01/25 09:06:29;;;;;;;27.48;23.63;;;2.90;99.90;;;;;;5043450;28;20566;-82
2022/01/25 09:09:01;;;;;;;29.00;21.23;;;3.20;99.90;;;;;;5046977;28;20267;-82
2022/01/25 09:11:28;;;;;;;31.48;23.20;;;3.60;99.90;;;;;;5049743;28;20438;-82
2022/01/25 09:13:55;;;;;;;29.60;22.57;;;4.10;99.90;;;;;;5063792;22;20660;-88
2022/01/25 09:16:23;;;;;;;28.33;22.97;;;4.40;99.90;;;;;;5060816;28;20466;-87
2022/01/25 09:18:49;;;;;;;29.30;23.27;;;4.60;99.90;;;;;;5084513;28;20452;-87
2022/01/25 09:21:16;;;;;;;29.57;22.93;;;5.00;99.90;;;;;;5078558;28;20196;-87
2022/01/25 09:23:43;;;;;;;26.87;21.70;;;5.10;99.90;;;;;;5057300;28;20810;-87
2022/01/25 09:26:09;;;;;;;30.97;23.87;;;4.80;99.90;;;;;;5055811;28;20470;-88
2022/01/25 09:28:37;;;;;;;33.50;23.90;;;4.60;99.90;;;;;;5058058;28;20451;-88
2022/01/25 09:31:04;;;;;;;33.47;23.30;;;4.60;99.90;;;;;;5055351;28;20444;-88
2022/01/25 09:33:32;;;;;;;27.10;23.10;;;5.20;99.90;;;;;;5055346;28;20470;-88
2022/01/25 09:35:58;;;;;;;30.53;22.90;;;5.40;99.90;;;;;;5056364;28;20487;-88
2022/01/25 09:38:26;;;;;;;28.10;22.00;;;5.80;99.90;;;;;;5075674;28;20474;-87
2022/01/25 09:40:53;;;;;;;31.50;24.80;;;5.70;99.90;;;;;;5056957;28;20526;-87
2022/01/25 09:43:21;;;;;;;35.87;22.90;;;5.50;99.90;;;;;;5053787;28;20471;-88
2022/01/25 09:45:48;;;;;;;31.13;23.33;;;5.40;99.90;;;;;;5055207;28;20444;-88
2022/01/25 09:48:16;;;;;;;29.23;22.70;;;5.30;99.90;;;;;;5061398;28;20510;-88
2022/01/25 09:50:45;;;;;;;29.57;24.67;;;5.10;99.90;;;;;;5056541;28;20444;-87
2022/01/25 09:53:11;;;;;;;27.80;23.57;;;5.10;99.90;;;;;;5056197;28;20466;-89
2022/01/25 09:55:40;;;;;;;30.17;23.17;;;5.10;99.90;;;;;;5053703;28;20482;-88
2022/01/25 09:58:08;;;;;;;30.77;23.90;;;5.20;99.90;;;;;;5054190;28;20462;-88
2022/01/25 10:00:37;;;;;;;32.73;22.83;;;5.40;99.90;;;;;;5066274;28;20485;-89
2022/01/25 10:03:10;;;;;;;28.30;23.33;;;5.70;99.90;;;;;;5071919;28;20455;-88
2022/01/25 10:05:38;;;;;;;29.90;23.63;;;6.40;99.90;;;;;;5076764;28;20444;-88
2022/01/25 10:08:08;;;;;;;28.50;22.20;;;6.70;98.80;;;;;;5075716;28;20442;-89
2022/01/25 10:10:37;;;;;;;31.00;23.03;;;7.50;98.40;;;;;;5054737;28;20460;-88
2022/01/25 10:13:12;;;;;;;28.57;22.80;;;8.10;97.10;;;;;;5054491;28;20480;-89
2022/01/25 10:15:40;;;;;;;30.43;23.53;;;9.10;94.90;;;;;;5053613;28;20475;-89
2022/01/25 10:18:07;;;;;;;28.33;23.60;;;9.20;93.50;;;;;;5052827;28;20859;-89
2022/01/25 10:20:36;;;;;;;27.23;23.70;;;10.00;92.40;;;;;;5053832;28;20452;-88
2022/01/25 10:23:09;;;;;;;32.93;23.10;;;10.40;90.60;;;;;;5053380;28;20530;-88
2022/01/25 10:25:38;;;;;;;31.57;24.83;;;10.80;88.90;;;;;;5052893;28;20453;-87
2022/01/25 10:28:11;;;;;;;27.00;23.27;;;11.20;88.80;;;;;;5035820;28;20445;-87
2022/01/25 10:30:41;;;;;;;26.10;23.40;;;11.80;85.20;;;;;;5043789;28;20523;-88
2022/01/25 10:33:32;;;;;;;28.03;24.93;;;11.90;82.70;;;;;;5053470;28;20476;-89
2022/01/25 10:36:02;;;;;;;25.23;22.50;;;11.90;82.70;;;;;;5052569;28;20468;-88
2022/01/25 10:38:31;;;;;;;29.70;24.60;;;12.50;79.40;;;;;;5054191;28;20456;-88
2022/01/25 10:41:07;;;;;;;27.70;24.17;;;13.40;79.50;;;;;;5053235;28;20460;-87
2022/01/25 10:43:34;;;;;;;28.93;25.93;;;14.00;75.40;;;;;;5053458;28;20844;-87
2022/01/25 10:46:06;;;;;;;28.50;25.63;;;14.50;72.70;;;;;;5068616;28;20444;-86
2022/01/25 10:48:32;;;;;;;27.80;25.07;;;14.40;71.20;;;;;;5065440;28;20442;-86
2022/01/25 10:51:05;;;;;;;28.23;24.67;;;15.80;68.80;;;;;;5053530;28;20451;-87
2022/01/25 10:53:31;;;;;;;26.60;23.97;;;17.60;64.30;;;;;;5062154;28;20468;-87
2022/01/25 10:55:59;;;;;;;26.60;24.10;;;19.40;60.40;;;;;;5054483;28;20477;-86
2022/01/25 10:58:28;;;;;;;30.80;25.47;;;20.90;55.20;;;;;;5051638;28;20791;-86
2022/01/25 11:00:56;;;;;;;27.33;24.60;;;21.80;52.20;;;;;;5050892;28;20449;-86
2022/01/25 11:03:28;;;;;;;27.37;24.67;;;21.40;51.80;;;;;;5055366;28;20469;-86
2022/01/25 11:05:55;;;;;;;27.73;25.13;;;22.40;50.50;;;;;;5053129;28;20836;-86
2022/01/25 11:08:24;;;;;;;25.50;23.27;;;23.10;48.90;;;;;;5052852;28;20458;-87
2022/01/25 11:10:55;;;;;;;27.47;24.57;;;23.00;46.80;;;;;;5052314;28;20451;-87
2022/01/25 11:13:35;;;;;;;28.60;25.80;;;23.80;46.10;;;;;;5075373;28;20487;-87
2022/01/25 11:16:05;;;;;;;28.13;25.33;;;23.40;45.60;;;;;;5058037;28;20527;-87
2022/01/25 11:18:32;;;;;;;32.43;29.53;;;23.90;45.20;;;;;;5052841;28;20449;-87
2022/01/25 11:21:01;;;;;;;31.40;28.47;;;24.20;44.20;;;;;;5052543;28;20819;-87
2022/01/25 11:23:31;;;;;;;31.00;28.00;;;24.50;44.70;;;;;;5053648;28;20522;-89
2022/01/25 11:25:59;;;;;;;29.67;27.07;;;24.00;44.30;;;;;;5054356;28;20452;-90
2022/01/25 11:28:26;;;;;;;28.33;25.70;;;24.10;44.00;;;;;;5053974;28;20871;-88
2022/01/25 11:30:54;;;;;;;30.23;27.53;;;23.80;43.40;;;;;;5053867;28;20448;-89
2022/01/25 11:33:23;;;;;;;28.87;26.03;;;24.30;43.60;;;;;;5053648;28;20464;-88
2022/01/25 11:35:50;;;;;;;28.43;25.83;;;23.80;43.10;;;;;;5052971;28;20441;-87
2022/01/25 11:38:32;;;;;;;31.30;28.10;;;24.60;43.30;;;;;;5053416;28;20449;-89
2022/01/25 11:40:58;;;;;;;29.13;26.53;;;24.60;42.50;;;;;;5052778;28;20802;-89
2022/01/25 11:43:25;;;;;;;28.97;26.47;;;24.60;41.90;;;;;;5052810;28;20465;-89
2022/01/25 11:46:03;;;;;;;28.53;25.63;;;24.70;42.30;;;;;;5051688;28;20448;-89
2022/01/25 11:48:43;;;;;;;28.50;25.73;;;25.00;42.30;;;;;;5062452;28;20442;-86
2022/01/25 11:51:17;;;;;;;29.70;27.00;;;25.20;41.50;;;;;;5073933;28;20430;-90
2022/01/25 11:53:45;;;;;;;30.00;27.10;;;25.90;41.30;;;;;;5069667;28;20500;-88
2022/01/25 11:56:13;;;;;;;29.40;26.80;;;25.60;40.10;;;;;;5068470;28;20445;-91
2022/01/25 11:58:41;;;;;;;27.70;25.30;;;24.70;41.40;;;;;;5075594;28;20434;-83
2022/01/25 12:01:17;;;;;;;27.90;25.30;;;24.60;41.30;;;;;;5064731;28;21008;-85
2022/01/25 12:03:47;;;;;;;28.50;25.93;;;24.50;41.50;;;;;;5059167;28;20491;-86
2022/01/25 12:06:20;;;;;;;27.73;25.27;;;24.90;41.10;;;;;;5053168;28;20827;-89
2022/01/25 12:09:07;;;;;;;30.60;27.70;;;24.00;40.70;;;;;;5051006;28;20931;-89
2022/01/25 12:11:38;;;;;;;28.10;25.50;;;23.60;42.20;;;;;;5052284;28;20942;-88
2022/01/25 12:14:25;;;;;;;30.13;27.53;;;24.20;42.70;;;;;;5055729;28;20444;-89
2022/01/25 12:16:54;;;;;;;29.17;26.30;;;23.00;42.30;;;;;;5056471;28;20910;-88
2022/01/25 12:19:34;;;;;;;28.43;25.77;;;22.60;42.90;;;;;;5056515;28;20437;-89
2022/01/25 12:22:04;;;;;;;31.83;28.77;;;22.20;44.10;;;;;;5056164;28;20976;-89
2022/01/25 12:24:35;;;;;;;30.63;27.77;;;22.20;44.60;;;;;;5062446;28;20475;-88
2022/01/25 12:27:09;;;;;;;34.80;31.27;;;21.30;44.50;;;;;;5063210;28;20482;-88
2022/01/25 12:29:39;;;;;;;32.90;29.60;;;19.90;45.50;;;;;;5056432;28;20543;-89
2022/01/25 12:32:27;;;;;;;32.73;29.37;;;18.20;48.60;;;;;;5056948;28;20468;-88
2022/01/25 12:35:14;;;;;;;34.23;29.83;;;15.80;52.50;;;;;;5055817;28;20452;-88
2022/01/25 12:38:04;;;;;;;31.53;28.43;;;16.60;54.60;;;;;;5057105;28;20448;-89
2022/01/25 12:40:47;;;;;;;33.90;30.43;;;17.40;52.40;;;;;;5075135;28;20458;-89
2022/01/25 12:43:18;;;;;;;32.13;28.93;;;17.70;52.20;;;;;;5078017;28;20509;-89
2022/01/25 12:45:49;;;;;;;33.50;29.87;;;17.60;51.70;;;;;;5077206;28;20440;-90
2022/01/25 12:48:19;;;;;;;31.63;28.30;;;16.50;52.90;;;;;;5076859;28;20554;-89
2022/01/25 12:50:50;;;;;;;33.77;30.33;;;16.60;53.80;;;;;;5075294;28;20449;-89
2022/01/25 12:53:21;;;;;;;35.00;31.30;;;15.40;54.40;;;;;;5060264;28;20460;-89
2022/01/25 12:55:49;;;;;;;31.33;27.33;;;14.60;56.80;;;;;;5056607;28;20441;-90
2022/01/25 12:58:18;;;;;;;33.13;28.33;;;14.90;57.20;;;;;;5060488;28;20451;-90
2022/01/25 13:00:47;;;;;;;32.27;28.30;;;14.90;56.40;;;;;;5056710;28;20859;-89
2022/01/25 13:03:20;;;;;;;32.13;28.67;;;15.20;57.20;;;;;;5056587;28;20473;-90
2022/01/25 13:05:52;;;;;;;33.17;29.63;;;15.60;56.60;;;;;;5056079;28;20828;-90
2022/01/25 13:08:22;;;;;;;31.53;28.30;;;15.40;56.00;;;;;;5066261;28;20486;-91
2022/01/25 13:10:51;;;;;;;33.33;28.97;;;15.70;55.60;;;;;;5059319;28;20451;-89
2022/01/25 13:13:28;;;;;;;30.27;27.17;;;15.70;55.30;;;;;;5070693;28;20496;-90
2022/01/25 13:15:57;;;;;;;33.80;28.30;;;15.60;55.20;;;;;;5074557;28;20921;-90
2022/01/25 13:18:28;;;;;;;30.37;27.13;;;14.80;55.70;;;;;;5057520;28;20513;-90
2022/01/25 13:21:05;;;;;;;30.97;27.63;;;13.70;57.30;;;;;;5058074;28;20922;-90
2022/01/25 13:23:33;;;;;;;31.20;27.80;;;13.20;59.10;;;;;;5055583;28;20474;-88
2022/01/25 13:26:09;;;;;;;33.60;28.10;;;13.00;60.00;;;;;;5054655;28;20448;-91
2022/01/25 13:28:51;;;;;;;34.00;27.17;;;13.10;60.80;;;;;;5055718;28;21119;-91
2022/01/25 13:31:19;;;;;;;31.50;28.03;;;13.50;60.00;;;;;;5055878;28;20465;-90
2022/01/25 13:33:46;;;;;;;29.83;26.40;;;13.50;60.30;;;;;;5056047;28;20476;-88
2022/01/25 13:36:16;;;;;;;34.00;27.90;;;13.40;59.70;;;;;;5068267;28;20506;-88
2022/01/25 13:38:46;;;;;;;31.43;28.03;;;13.30;60.90;;;;;;5068525;28;20442;-88
2022/01/25 13:41:21;;;;;;;33.43;29.10;;;14.00;60.10;;;;;;5058301;28;20451;-88
2022/01/25 13:46:37;;;;;;;32.57;29.23;;;14.90;58.80;;;;;;5066825;28;20437;-89
2022/01/25 13:49:08;;;;;;;37.77;31.30;;;14.70;57.90;;;;;;5063303;28;20454;-89
2022/01/25 13:51:42;;;;;;;33.50;29.87;;;15.10;58.30;;;;;;5070440;28;20471;-89
2022/01/25 13:54:11;;;;;;;35.50;30.67;;;15.60;58.00;;;;;;5076943;28;20462;-90
2022/01/25 13:56:38;;;;;;;34.57;30.97;;;15.60;57.40;;;;;;5063327;28;20963;-90
2022/01/25 13:59:07;;;;;;;36.07;32.30;;;15.50;57.10;;;;;;5060785;28;20449;-88
2022/01/25 14:01:36;;;;;;;39.10;34.20;;;15.40;57.10;;;;;;5059123;28;20448;-90
2022/01/25 14:04:05;;;;;;;37.00;32.13;;;15.10;57.50;;;;;;5050388;28;20471;-89